This is the latest recevied weather packets stored in our database for station/object KA3MCG-13. If no packets are shown the sender has not sent any weather packets the latest 10 day(s).
| Time | Temp. | Humidity | Pressure | Rain* | Wind** | Luminosity | Snow |
|---|---|---|---|---|---|---|---|
| 1777752016 | 12.78° C | 45% | 1011.3 hPa | 0 mm | - | 291 W/m² | - |
| 1777750216 | 12.78° C | 47% | 1011.7 hPa | 0 mm | - | 511 W/m² | - |
| 1777723216 | 6.67° C | 75% | 1013.4 hPa | 0 mm | - | 112 W/m² | - |
| 1777721416 | 6.11° C | 76% | 1013.3 hPa | 0 mm | - | 71 W/m² | - |
| 1777712416 | 6.67° C | 79% | 1013 hPa | 0 mm | - | 0 W/m² | - |
| 1777710616 | 7.22° C | 77% | 1012.7 hPa | 0 mm | - | 0 W/m² | - |
| 1777708835 | 7.78° C | 75% | 1012.9 hPa | 0 mm | - | 0 W/m² | - |
| 1777707037 | 7.78° C | 76% | 1012.5 hPa | 0 mm | - | 0 W/m² | - |
| 1777680017 | 14.44° C | 64% | 1009.9 hPa | 0 mm | - | 3 W/m² | - |
| 1777678217 | 15° C | 57% | 1009.4 hPa | 0 mm | - | 25 W/m² | - |
| 1777669217 | 18.33° C | 41% | 1008.9 hPa | 0 mm | - | 654 W/m² | - |
| 1777667417 | 17.22° C | 42% | 1009.5 hPa | 0 mm | - | 500 W/m² | - |
| 1777636816 | 7.22° C | 81% | 1014.2 hPa | 0 mm | - | 39 W/m² | - |
| 1777635016 | 5.56° C | 87% | 1014.4 hPa | 0 mm | - | 29 W/m² | - |
| 1777615216 | 4.44° C | 87% | 1013.4 hPa | 0 mm | - | 0 W/m² | - |
| 1777613416 | 5° C | 85% | 1013.4 hPa | 0 mm | - | 0 W/m² | - |
| 1777604437 | 6.67° C | 80% | 1012.9 hPa | 0 mm | - | 0 W/m² | - |
| 1777602637 | 7.22° C | 79% | 1012.9 hPa | 0 mm | - | 0 W/m² | - |
| 1777579217 | 15.56° C | 55% | 1008.2 hPa | 0 mm | - | 390 W/m² | - |
| 1777577417 | 16.67° C | 55% | 1008 hPa | 0 mm | - | 735 W/m² | - |
| 1777564837 | 16.11° C | 57% | 1008.4 hPa | 0 mm | - | 850 W/m² | - |
| 1777563037 | 15.56° C | 60% | 1008.3 hPa | 0 mm | - | 897 W/m² | - |
| 1777539636 | 11.11° C | 92% | 1007.5 hPa | 0 mm | - | 0 W/m² | - |
| 1777537837 | 11.67° C | 92% | 1007 hPa | 0 mm | - | 0 W/m² | - |
| 1777521616 | 12.22° C | 93% | 1006.8 hPa | 0 mm | - | 0 W/m² | - |
* Rain latest hour (hover to see other rain measurements)
** Current wind speed in m/s (hover to see current wind gust speed)